Time;durP1;ratioP1;P1;durP2;ratioP2;P2;SDS_P1;SDS_P2;PMS_P1;PMS_P2;Temp;Humidity;BMP_temperature;BMP_pressure;BME280_temperature;BME280_humidity;BME280_pressure;Samples;Min_cycle;Max_cycle;Signal;HPM_P1;HPM_P2
2021/11/05 00:00:21;;;;;;;2.60;1.60;;;;;;;6.52;70.61;98009.60;112925;1206;23266;-78
2021/11/05 00:03:04;;;;;;;3.60;1.40;;;;;;;6.49;70.86;98015.49;112813;1198;137446;-79
2021/11/05 00:05:32;;;;;;;2.10;1.40;;;;;;;6.45;70.82;98019.77;113449;1206;22504;-80
2021/11/05 00:08:07;;;;;;;2.70;2.00;;;;;;;6.42;71.22;98019.95;113641;1206;23677;-80
2021/11/05 00:10:42;;;;;;;2.50;1.40;;;;;;;6.37;71.52;98022.14;112862;1200;137057;-79
2021/11/05 00:13:10;;;;;;;2.80;1.80;;;;;;;6.32;71.36;98022.20;113048;1200;23743;-79
2021/11/05 00:15:38;;;;;;;2.30;1.40;;;;;;;6.27;71.54;98033.55;113041;1206;137122;-79
2021/11/05 00:18:06;;;;;;;3.00;1.70;;;;;;;6.23;71.69;98036.05;113201;1206;24039;-78
2021/11/05 00:20:33;;;;;;;3.00;1.40;;;;;;;6.20;72.00;98039.58;112881;1206;22452;-77
2021/11/05 00:23:01;;;;;;;3.40;2.00;;;;;;;6.20;71.89;98048.23;112832;1200;137618;-78
2021/11/05 00:25:28;;;;;;;4.20;1.60;;;;;;;6.20;71.99;98050.77;113043;1206;25012;-80
2021/11/05 00:27:55;;;;;;;2.60;2.00;;;;;;;6.19;72.00;98057.17;112853;1205;137232;-80
2021/11/05 00:30:22;;;;;;;5.00;2.00;;;;;;;6.18;71.99;98065.44;112882;1206;22743;-79
2021/11/05 00:32:49;;;;;;;3.50;2.30;;;;;;;6.18;72.33;98070.34;112925;1200;22606;-79
2021/11/05 00:35:16;;;;;;;5.30;2.60;;;;;;;6.16;72.31;98076.19;112941;1205;138430;-79
2021/11/05 00:37:44;;;;;;;6.00;2.40;;;;;;;6.14;72.05;98081.25;113002;1206;25181;-79
2021/11/05 00:40:13;;;;;;;5.10;2.40;;;;;;;6.11;72.17;98087.18;113423;1200;138138;-79
2021/11/05 00:42:41;;;;;;;6.60;3.20;;;;;;;6.09;72.39;98087.54;113244;1200;23782;-79
2021/11/05 00:45:08;;;;;;;4.00;2.20;;;;;;;6.09;72.31;98093.36;113046;1184;137141;-78
2021/11/05 00:47:36;;;;;;;3.30;2.10;;;;;;;6.06;72.28;98097.56;113080;1206;22507;-78
2021/11/05 00:50:04;;;;;;;3.50;2.50;;;;;;;6.03;72.43;98104.20;112666;1207;22470;-78
2021/11/05 00:52:31;;;;;;;2.90;1.90;;;;;;;5.98;72.83;98105.90;112600;1200;137382;-78
2021/11/05 00:54:58;;;;;;;3.50;2.00;;;;;;;5.92;72.78;98105.70;112746;1200;22748;-81
2021/11/05 00:57:25;;;;;;;3.80;2.30;;;;;;;5.86;72.81;98109.63;112859;1200;138247;-79
2021/11/05 00:59:52;;;;;;;5.20;2.00;;;;;;;5.80;73.02;98116.73;112830;1206;24048;-78
2021/11/05 01:02:18;;;;;;;4.40;2.30;;;;;;;5.76;73.27;98113.29;112919;1206;22736;-79
2021/11/05 01:04:45;;;;;;;2.90;2.10;;;;;;;5.72;73.49;98110.92;112955;1200;137884;-78
2021/11/05 01:07:12;;;;;;;5.80;2.80;;;;;;;5.67;73.53;98109.14;112921;1205;22545;-78
2021/11/05 01:09:39;;;;;;;4.40;2.90;;;;;;;5.62;73.70;98107.36;112698;1206;138047;-78
2021/11/05 01:12:08;;;;;;;4.80;3.10;;;;;;;5.55;73.99;98109.58;112915;1200;23980;-78
2021/11/05 01:14:36;;;;;;;4.20;2.70;;;;;;;5.49;74.20;98112.70;112817;1200;25258;-78
2021/11/05 01:17:04;;;;;;;5.60;2.90;;;;;;;5.45;74.19;98117.27;112758;1206;137544;-79
2021/11/05 01:19:34;;;;;;;3.60;2.50;;;;;;;5.43;74.43;98124.17;113205;1205;24168;-79
2021/11/05 01:22:00;;;;;;;;;;;;;;;5.41;74.63;98127.78;112779;1206;138360;-79
2021/11/05 01:24:27;;;;;;;8.10;3.60;;;;;;;5.38;74.84;98126.33;112963;1200;24048;-79
2021/11/05 01:26:54;;;;;;;8.60;3.90;;;;;;;5.35;74.83;98124.83;112962;1200;26276;-79
2021/11/05 01:29:21;;;;;;;8.00;3.60;;;;;;;5.31;75.09;98122.65;112926;1206;137107;-79
2021/11/05 01:31:48;;;;;;;6.80;3.40;;;;;;;5.27;75.33;98121.65;112846;1205;24156;-79
2021/11/05 01:34:15;;;;;;;6.10;3.90;;;;;;;5.24;75.27;98123.45;112816;1200;137794;-79
2021/11/05 01:36:42;;;;;;;8.70;3.70;;;;;;;5.23;75.45;98122.75;112885;1206;25125;-79
2021/11/05 01:39:09;;;;;;;7.50;4.10;;;;;;;5.22;75.57;98120.35;112764;1206;137582;-78
2021/11/05 01:41:40;;;;;;;7.10;3.60;;;;;;;5.23;75.48;98125.70;112851;1206;24207;-79
2021/11/05 01:44:07;;;;;;;7.90;3.40;;;;;;;5.21;75.58;98129.71;113009;1198;22457;-79
2021/11/05 01:46:41;;;;;;;8.50;3.60;;;;;;;5.20;75.68;98127.01;112640;1206;136807;-79
2021/11/05 01:49:09;;;;;;;7.20;4.10;;;;;;;5.18;75.76;98129.59;112826;1206;22704;-79
2021/11/05 01:51:38;;;;;;;6.00;3.30;;;;;;;5.18;75.73;98134.08;112739;1203;138019;-78
2021/11/05 01:54:08;;;;;;;6.20;3.40;;;;;;;5.19;75.55;98139.84;113136;1206;23782;-79
2021/11/05 01:56:38;;;;;;;5.40;3.50;;;;;;;5.20;75.50;98136.32;112984;1206;22435;-79
2021/11/05 01:59:05;;;;;;;12.50;5.50;;;;;;;5.19;75.56;98135.85;112865;1206;137121;-78
2021/11/05 02:01:34;;;;;;;8.50;3.70;;;;;;;5.18;75.65;98131.34;112953;1205;24108;-78
2021/11/05 02:04:01;;;;;;;8.00;4.60;;;;;;;5.16;75.71;98127.63;112776;1200;137474;-78
2021/11/05 02:06:30;;;;;;;9.30;4.70;;;;;;;5.12;75.70;98130.05;112738;1206;25054;-79
2021/11/05 02:08:59;;;;;;;7.90;4.00;;;;;;;5.09;75.75;98127.98;112897;1205;137611;-78
2021/11/05 02:11:29;;;;;;;10.10;4.90;;;;;;;5.07;75.92;98127.21;112885;1206;22496;-79
2021/11/05 02:14:01;;;;;;;7.50;3.90;;;;;;;5.03;75.92;98133.80;112937;1200;22473;-79
2021/11/05 02:16:31;;;;;;;8.00;4.20;;;;;;;4.99;75.97;98131.52;112792;1206;137060;-78
2021/11/05 02:18:58;;;;;;;7.30;4.50;;;;;;;4.94;76.18;98132.70;112878;1206;22428;-78
2021/11/05 02:21:36;;;;;;;7.70;4.20;;;;;;;4.91;76.34;98138.81;113017;1206;138043;-78
2021/11/05 02:24:06;;;;;;;7.80;4.30;;;;;;;4.87;76.11;98136.52;112936;1206;23985;-78
2021/11/05 02:26:33;;;;;;;7.80;4.20;;;;;;;4.85;76.36;98140.17;113134;1198;24193;-78
2021/11/05 02:29:00;;;;;;;7.30;4.40;;;;;;;4.83;76.25;98140.77;112603;1200;137244;-78
2021/11/05 02:31:27;;;;;;;7.00;4.20;;;;;;;4.82;76.50;98148.71;112790;1206;22420;-79
2021/11/05 02:33:54;;;;;;;6.70;4.10;;;;;;;4.79;76.49;98153.45;112951;1206;137181;-78
2021/11/05 02:36:21;;;;;;;7.20;5.00;;;;;;;4.76;76.49;98156.04;112910;1206;22578;-78
2021/11/05 02:38:48;;;;;;;6.80;4.20;;;;;;;4.73;76.54;98157.96;112869;1206;22445;-78
2021/11/05 02:41:16;;;;;;;7.30;3.90;;;;;;;4.72;76.55;98158.80;112675;1206;137103;-79
2021/11/05 02:43:43;;;;;;;6.30;3.60;;;;;;;4.72;76.70;98156.73;112807;1206;25319;-78
2021/11/05 02:46:10;;;;;;;5.80;3.10;;;;;;;4.71;76.64;98154.40;113259;1200;137188;-78
2021/11/05 02:48:37;;;;;;;4.70;2.90;;;;;;;4.69;76.61;98150.55;112838;1207;24074;-78
2021/11/05 02:51:04;;;;;;;7.10;3.30;;;;;;;4.67;76.68;98147.70;112866;1205;137945;-78
2021/11/05 02:53:31;;;;;;;3.90;2.80;;;;;;;4.65;76.62;98143.27;112818;1206;22572;-79
2021/11/05 02:55:58;;;;;;;6.90;2.90;;;;;;;4.66;76.62;98140.85;112924;1200;22510;-78
2021/11/05 02:58:25;;;;;;;4.00;3.10;;;;;;;4.66;76.58;98139.79;112815;1207;137264;-78
2021/11/05 03:00:54;;;;;;;6.00;3.30;;;;;;;4.66;76.72;98139.98;112711;1200;22511;-78
2021/11/05 03:03:21;;;;;;;3.20;2.50;;;;;;;4.64;76.85;98142.73;112789;1206;137395;-78
2021/11/05 03:05:48;;;;;;;5.80;3.00;;;;;;;4.62;76.57;98149.30;112935;1206;22704;-79
2021/11/05 03:08:15;;;;;;;4.30;2.70;;;;;;;4.61;76.67;98154.91;112914;1200;22438;-78
2021/11/05 03:10:42;;;;;;;3.00;2.40;;;;;;;4.60;76.74;98159.46;112816;1205;137609;-81
2021/11/05 03:13:12;;;;;;;4.80;2.80;;;;;;;4.61;76.64;98160.52;112829;1200;22465;-80
2021/11/05 03:15:39;;;;;;;4.00;2.80;;;;;;;4.59;76.71;98160.90;112836;1200;137318;-79
2021/11/05 03:18:07;;;;;;;4.00;2.70;;;;;;;4.58;76.79;98169.98;113207;1206;25012;-79
2021/11/05 03:20:34;;;;;;;5.80;3.10;;;;;;;4.56;76.72;98176.55;112765;1206;24859;-78
2021/11/05 03:23:01;;;;;;;3.70;2.50;;;;;;;4.54;76.87;98195.34;112566;1205;136774;-78
2021/11/05 03:25:28;;;;;;;4.60;3.10;;;;;;;4.52;76.77;98204.23;112744;1199;22420;-78
2021/11/05 03:27:55;;;;;;;5.60;2.90;;;;;;;4.52;76.88;98207.22;112678;1206;137836;-79
2021/11/05 03:30:22;;;;;;;4.90;3.30;;;;;;;4.52;76.82;98217.21;113032;1204;22595;-78
2021/11/05 03:32:49;;;;;;;4.60;2.90;;;;;;;4.51;76.91;98222.07;112817;1205;22472;-78
2021/11/05 03:35:15;;;;;;;4.80;3.10;;;;;;;4.49;76.99;98230.33;112717;1198;136813;-78
2021/11/05 03:37:46;;;;;;;5.40;3.20;;;;;;;4.47;76.95;98236.68;112906;1205;24058;-78
2021/11/05 03:40:16;;;;;;;5.10;2.90;;;;;;;4.43;77.05;98236.61;112672;1206;137498;-78
2021/11/05 03:42:48;;;;;;;4.60;3.00;;;;;;;4.40;77.23;98246.48;113086;1199;25169;-78
2021/11/05 03:45:17;;;;;;;5.60;3.40;;;;;;;4.40;77.20;98248.05;112868;1205;137807;-78
2021/11/05 03:47:44;;;;;;;4.40;3.10;;;;;;;4.39;77.22;98247.05;112735;1192;24066;-78
2021/11/05 03:50:11;;;;;;;5.50;3.00;;;;;;;4.37;77.42;98249.48;112691;1206;25051;-78
2021/11/05 03:52:38;;;;;;;6.60;3.20;;;;;;;4.36;77.37;98251.00;112652;1207;137467;-78
2021/11/05 03:55:07;;;;;;;3.90;2.70;;;;;;;4.34;77.53;98260.14;113038;1207;22546;-80
2021/11/05 03:57:34;;;;;;;6.10;3.40;;;;;;;4.31;77.51;98263.91;112799;1200;138069;-78
2021/11/05 04:00:03;;;;;;;3.70;2.70;;;;;;;4.29;77.44;98268.02;112682;1205;25169;-79
2021/11/05 04:02:31;;;;;;;4.30;2.60;;;;;;;4.30;77.64;98270.80;113843;1206;22467;-80
2021/11/05 04:04:58;;;;;;;4.80;2.70;;;;;;;4.31;77.59;98274.91;113829;1206;137069;-79
2021/11/05 04:07:25;;;;;;;4.10;2.40;;;;;;;4.31;77.67;98280.99;113173;1205;22562;-79
2021/11/05 04:09:51;;;;;;;4.40;2.50;;;;;;;4.31;77.66;98287.80;112971;1206;137014;-80
2021/11/05 04:12:18;;;;;;;4.60;2.50;;;;;;;4.31;77.55;98294.30;113527;1200;24024;-79
2021/11/05 04:14:45;;;;;;;6.30;2.90;;;;;;;4.31;77.61;98296.69;113557;1205;24064;-79
2021/11/05 04:17:13;;;;;;;4.10;2.70;;;;;;;4.31;77.38;98300.61;113298;1206;137298;-79
2021/11/05 04:19:41;;;;;;;3.30;2.50;;;;;;;4.31;77.57;98303.48;113359;1205;22455;-79
2021/11/05 04:22:08;;;;;;;4.10;2.50;;;;;;;4.30;77.50;98310.95;113069;1206;137035;-79
2021/11/05 04:24:34;;;;;;;3.40;2.30;;;;;;;4.29;77.64;98314.77;113628;1205;22518;-79
2021/11/05 04:27:01;;;;;;;3.80;2.30;;;;;;;4.26;77.49;98314.39;114114;1199;137144;-80
2021/11/05 04:29:28;;;;;;;4.10;2.90;;;;;;;4.24;77.59;98318.87;113183;1206;22573;-78
2021/11/05 04:31:54;;;;;;;3.20;2.30;;;;;;;4.22;77.54;98316.55;113183;1205;22561;-78
2021/11/05 04:34:20;;;;;;;2.70;1.90;;;;;;;4.21;77.55;98309.48;112823;1206;137329;-79
2021/11/05 04:36:46;;;;;;;2.80;2.30;;;;;;;4.21;77.60;98306.84;113301;1200;24200;-79
2021/11/05 04:39:24;;;;;;;3.10;2.20;;;;;;;4.20;77.68;98301.21;113084;1199;137373;-79
2021/11/05 04:41:52;;;;;;;2.20;2.00;;;;;;;4.19;77.74;98308.17;113160;1205;24053;-79
2021/11/05 04:44:18;;;;;;;6.10;2.20;;;;;;;4.17;77.80;98303.77;113281;1204;22473;-79
2021/11/05 04:46:44;;;;;;;3.00;1.90;;;;;;;4.15;77.69;98305.65;112909;1205;137908;-79
2021/11/05 04:49:11;;;;;;;3.00;1.70;;;;;;;4.15;77.71;98302.58;113158;1200;23755;-79
2021/11/05 04:51:37;;;;;;;4.10;2.10;;;;;;;4.16;77.77;98303.73;113080;1206;137387;-79
2021/11/05 04:54:03;;;;;;;4.70;2.20;;;;;;;4.16;77.84;98305.64;113041;1206;22447;-79
2021/11/05 04:56:30;;;;;;;6.20;1.80;;;;;;;4.16;77.71;98305.42;113102;1206;25054;-79
2021/11/05 04:58:56;;;;;;;3.10;1.70;;;;;;;4.17;77.68;98306.84;113340;1200;137146;-80
2021/11/05 05:01:22;;;;;;;2.90;1.80;;;;;;;4.14;77.63;98299.24;113170;1206;24001;-79
2021/11/05 05:03:49;;;;;;;3.10;1.90;;;;;;;4.14;77.50;98299.96;113295;1206;137628;-79
2021/11/05 05:06:15;;;;;;;3.40;2.20;;;;;;;4.16;77.55;98302.49;113320;1205;25163;-78
2021/11/05 05:08:41;;;;;;;4.50;1.80;;;;;;;4.17;77.49;98306.84;113048;1200;22624;-79
2021/11/05 05:11:07;;;;;;;5.40;2.80;;;;;;;4.17;77.52;98309.37;112904;1205;136843;-78
2021/11/05 05:13:33;;;;;;;6.00;3.40;;;;;;;4.16;77.52;98302.77;112976;1205;22868;-78
2021/11/05 05:16:00;;;;;;;6.20;3.60;;;;;;;4.14;77.41;98305.73;112841;1205;136956;-79
2021/11/05 05:18:26;;;;;;;6.00;4.20;;;;;;;4.12;77.61;98308.27;113187;1198;22780;-79
2021/11/05 05:20:52;;;;;;;4.80;2.50;;;;;;;4.08;77.48;98312.48;113131;1206;22449;-78
2021/11/05 05:23:19;;;;;;;4.50;2.50;;;;;;;4.07;77.53;98316.13;112652;1206;137153;-78
2021/11/05 05:25:45;;;;;;;5.90;2.90;;;;;;;4.05;77.67;98322.80;113290;1205;25051;-78
2021/11/05 05:28:11;;;;;;;10.80;4.70;;;;;;;4.03;77.64;98325.58;113221;1199;136870;-79
2021/11/05 05:30:53;;;;;;;11.30;5.00;;;;;;;4.01;77.69;98326.98;113253;1205;24087;-79
2021/11/05 05:33:20;;;;;;;7.50;3.70;;;;;;;3.97;77.77;98326.89;113428;1200;137230;-79
2021/11/05 05:35:46;;;;;;;6.10;3.50;;;;;;;3.94;78.02;98326.90;113148;1200;22452;-79
2021/11/05 05:38:12;;;;;;;6.00;3.40;;;;;;;3.94;77.80;98333.23;113177;1198;25104;-79
2021/11/05 05:40:38;;;;;;;7.10;4.10;;;;;;;3.94;78.05;98331.08;113357;1205;137166;-79
2021/11/05 05:43:04;;;;;;;7.10;3.60;;;;;;;3.94;77.82;98333.45;113106;1200;24057;-79
2021/11/05 05:45:31;;;;;;;8.80;4.20;;;;;;;3.93;77.92;98338.20;113101;1206;137649;-79
2021/11/05 05:47:57;;;;;;;6.00;4.20;;;;;;;3.91;77.80;98341.64;113106;1206;25253;-79
2021/11/05 05:50:38;;;;;;;7.80;4.00;;;;;;;3.90;78.02;98345.13;113211;1200;32889;-80
2021/11/05 05:53:04;;;;;;;9.90;4.00;;;;;;;3.90;77.90;98340.94;113110;1205;138006;-79
2021/11/05 05:55:30;;;;;;;9.70;5.80;;;;;;;3.91;77.95;98348.48;113341;1199;25093;-79
2021/11/05 05:57:56;;;;;;;11.10;5.80;;;;;;;3.93;77.99;98349.55;113010;1206;137111;-79
2021/11/05 06:00:23;;;;;;;10.00;4.70;;;;;;;3.93;77.94;98350.77;113457;1205;22560;-79
2021/11/05 06:02:50;;;;;;;11.20;4.80;;;;;;;3.93;78.01;98361.86;113228;1205;22516;-79
2021/11/05 06:05:16;;;;;;;9.30;5.30;;;;;;;3.94;78.02;98375.98;113016;1200;137224;-79
2021/11/05 06:07:42;;;;;;;8.50;4.50;;;;;;;3.95;77.81;98383.35;113114;1206;25128;-79
2021/11/05 06:10:09;;;;;;;9.60;4.50;;;;;;;3.99;77.74;98378.53;113120;1198;138204;-79
2021/11/05 06:12:35;;;;;;;6.80;3.90;;;;;;;4.02;77.86;98374.63;113488;1198;24081;-79
2021/11/05 06:15:01;;;;;;;8.90;4.60;;;;;;;4.05;77.77;98377.94;113126;1205;137369;-80
2021/11/05 06:17:28;;;;;;;5.30;4.40;;;;;;;4.06;77.76;98369.31;113213;1199;22436;-79
2021/11/05 06:19:54;;;;;;;6.90;4.70;;;;;;;4.05;77.59;98365.33;113238;1202;24954;-79
2021/11/05 06:22:20;;;;;;;4.90;4.10;;;;;;;4.03;77.59;98365.80;113014;1206;136834;-79
2021/11/05 06:24:46;;;;;;;10.50;4.60;;;;;;;4.03;77.57;98374.50;113191;1206;24159;-79
2021/11/05 06:27:13;;;;;;;7.10;4.60;;;;;;;4.04;77.57;98380.66;113079;1205;137756;-79
2021/11/05 06:29:40;;;;;;;9.00;5.30;;;;;;;4.05;77.49;98382.66;113270;1200;23808;-79
2021/11/05 06:32:06;;;;;;;11.30;5.30;;;;;;;4.05;77.58;98379.35;113219;1206;22448;-79
2021/11/05 06:34:33;;;;;;;9.40;5.40;;;;;;;4.05;77.50;98379.33;112833;1205;137175;-79
2021/11/05 06:36:59;;;;;;;7.70;5.10;;;;;;;4.06;77.66;98389.93;112989;1206;23613;-82
2021/11/05 06:39:26;;;;;;;10.00;5.50;;;;;;;4.06;77.51;98392.58;113003;1199;137146;-80
2021/11/05 06:41:52;;;;;;;12.30;5.00;;;;;;;4.08;77.45;98398.79;113392;1205;22513;-80
2021/11/05 06:44:18;;;;;;;6.60;4.50;;;;;;;4.11;77.55;98401.42;113245;1206;25114;-80
2021/11/05 06:46:44;;;;;;;6.90;4.70;;;;;;;4.14;77.56;98401.50;113364;1206;137004;-80
2021/11/05 06:49:11;;;;;;;9.20;4.30;;;;;;;4.18;77.54;98409.09;113092;1200;26404;-80
2021/11/05 06:51:55;;;;;;;8.60;4.30;;;;;;;4.23;77.46;98420.66;112910;1198;137396;-80
2021/11/05 06:54:22;;;;;;;8.30;4.40;;;;;;;4.28;77.39;98427.40;113325;1200;22461;-80
2021/11/05 06:56:49;;;;;;;10.80;4.80;;;;;;;4.32;77.51;98430.91;113178;1205;22437;-80
2021/11/05 06:59:16;;;;;;;5.30;4.20;;;;;;;4.39;77.38;98427.53;113055;1205;137638;-80
2021/11/05 07:01:43;;;;;;;7.40;3.80;;;;;;;4.47;77.13;98431.81;113229;1200;24995;-79
2021/11/05 07:04:09;;;;;;;6.60;3.70;;;;;;;4.57;76.83;98431.40;112996;1206;137137;-79
2021/11/05 07:06:44;;;;;;;8.70;4.10;;;;;;;4.68;76.49;98435.67;113280;1205;24213;-80
2021/11/05 07:09:15;;;;;;;8.20;3.40;;;;;;;4.79;76.26;98440.83;113330;1205;137271;-79
2021/11/05 07:11:43;;;;;;;8.10;3.60;;;;;;;4.89;75.88;98438.41;113233;1190;22528;-79
2021/11/05 07:14:09;;;;;;;8.70;4.00;;;;;;;4.99;75.45;98436.31;113391;1205;25030;-79
2021/11/05 07:16:36;;;;;;;4.60;3.90;;;;;;;5.11;75.14;98433.44;112868;1203;137827;-79
2021/11/05 07:19:05;;;;;;;7.50;3.50;;;;;;;5.24;74.36;98435.11;113030;1206;23655;-79
2021/11/05 07:21:32;;;;;;;4.40;3.40;;;;;;;5.38;74.09;98449.13;113203;1198;138322;-79
2021/11/05 07:24:03;;;;;;;5.10;3.30;;;;;;;5.51;73.71;98453.08;113244;1205;23167;-79
2021/11/05 07:26:36;;;;;;;7.40;4.30;;;;;;;5.67;73.14;98453.98;113169;1205;22422;-79
2021/11/05 07:29:06;;;;;;;10.00;4.20;;;;;;;5.82;72.58;98457.50;113257;1200;136842;-80
2021/11/05 07:31:33;;;;;;;7.60;4.30;;;;;;;5.95;72.38;98465.81;113105;1207;22563;-79
2021/11/05 07:34:00;;;;;;;6.80;4.20;;;;;;;6.06;72.18;98465.20;113369;1206;136890;-79
2021/11/05 07:36:27;;;;;;;8.10;3.90;;;;;;;6.17;71.64;98460.78;113311;1198;22455;-79
2021/11/05 07:38:54;;;;;;;12.50;4.30;;;;;;;6.26;71.43;98463.05;113210;1206;24107;-79
2021/11/05 07:41:20;;;;;;;9.60;4.50;;;;;;;6.38;71.23;98462.11;113204;1200;137310;-79
2021/11/05 07:43:48;;;;;;;6.50;3.80;;;;;;;6.50;71.23;98465.60;113226;1203;25277;-78
2021/11/05 07:46:14;;;;;;;7.80;4.10;;;;;;;6.61;70.60;98475.39;113035;1206;139277;-78
2021/11/05 07:48:41;;;;;;;6.70;4.00;;;;;;;6.69;70.08;98487.63;113228;1206;22475;-78
2021/11/05 07:51:07;;;;;;;5.90;4.00;;;;;;;6.77;69.55;98487.27;113000;1198;137780;-78
2021/11/05 07:53:34;;;;;;;12.70;4.80;;;;;;;6.82;69.33;98483.07;112978;1206;25071;-79
2021/11/05 07:56:01;;;;;;;10.80;4.60;;;;;;;6.87;69.37;98486.50;113060;1205;22471;-79
2021/11/05 07:58:27;;;;;;;8.80;5.20;;;;;;;6.92;68.86;98479.52;113195;1206;137259;-78
2021/11/05 08:00:53;;;;;;;8.10;4.40;;;;;;;6.99;69.02;98480.77;113307;1205;22473;-79
2021/11/05 08:03:21;;;;;;;8.30;4.30;;;;;;;7.08;68.10;98482.06;113349;1198;137147;-79
2021/11/05 08:05:48;;;;;;;7.40;4.00;;;;;;;7.17;67.98;98478.36;113063;1205;25502;-79
2021/11/05 08:08:15;;;;;;;8.70;3.50;;;;;;;7.28;67.63;98482.68;113103;1205;24693;-79
2021/11/05 08:10:41;;;;;;;6.70;3.50;;;;;;;7.36;67.73;98488.44;112665;1200;137245;-78
2021/11/05 08:13:08;;;;;;;5.10;2.70;;;;;;;7.47;67.16;98486.45;112971;1200;22436;-79
2021/11/05 08:15:34;;;;;;;4.70;3.30;;;;;;;7.53;66.21;98489.60;112763;1206;137222;-79
2021/11/05 08:18:01;;;;;;;5.50;3.20;;;;;;;7.60;65.73;98498.74;112841;1206;22445;-79
2021/11/05 08:20:27;;;;;;;5.00;2.80;;;;;;;7.70;65.97;98513.35;113117;1205;25209;-78
2021/11/05 08:22:53;;;;;;;5.80;2.70;;;;;;;7.80;66.17;98511.36;112759;1199;137709;-79
2021/11/05 08:25:20;;;;;;;6.20;2.80;;;;;;;7.89;65.21;98515.11;112677;1206;22442;-79
2021/11/05 08:27:47;;;;;;;5.20;2.70;;;;;;;7.98;63.86;98516.67;112839;1205;136831;-79
2021/11/05 08:30:20;;;;;;;3.60;2.40;;;;;;;8.06;63.93;98509.39;112746;1205;25127;-78
2021/11/05 08:32:47;;;;;;;5.90;3.00;;;;;;;8.14;63.49;98527.91;112975;1198;25258;-78
2021/11/05 08:35:13;;;;;;;4.30;2.70;;;;;;;8.19;63.56;98531.39;112826;1205;137038;-79
2021/11/05 08:37:39;;;;;;;3.50;3.10;;;;;;;8.25;63.20;98534.36;113029;1198;22430;-79
2021/11/05 08:40:07;;;;;;;5.20;2.90;;;;;;;8.31;62.92;98542.56;112751;1192;137333;-78
2021/11/05 08:42:34;;;;;;;4.70;3.30;;;;;;;8.38;62.91;98547.20;112918;1190;24091;-78
2021/11/05 08:45:00;;;;;;;7.20;2.90;;;;;;;8.43;63.34;98547.10;112783;1206;138001;-79
2021/11/05 08:47:27;;;;;;;3.30;2.80;;;;;;;8.52;63.06;98539.42;112824;1206;22906;-78
2021/11/05 08:49:54;;;;;;;3.30;2.50;;;;;;;8.62;62.58;98553.16;112757;1205;22471;-78
2021/11/05 08:52:21;;;;;;;4.00;2.50;;;;;;;8.66;61.89;98553.08;112862;1198;138149;-78
2021/11/05 08:54:48;;;;;;;3.00;2.50;;;;;;;8.64;61.71;98558.65;113896;1198;24031;-78
2021/11/05 08:57:15;;;;;;;3.40;2.70;;;;;;;8.58;61.92;98558.27;113138;1206;138047;-78
2021/11/05 08:59:44;;;;;;;3.60;2.70;;;;;;;8.50;61.71;98566.89;113289;1200;23204;-78
2021/11/05 09:02:10;;;;;;;2.90;2.10;;;;;;;8.43;61.38;98569.39;112957;1200;24103;-78
2021/11/05 09:04:36;;;;;;;4.80;2.50;;;;;;;8.35;61.60;98562.42;113370;1198;136733;-78
2021/11/05 09:07:02;;;;;;;6.30;3.00;;;;;;;8.29;62.15;98567.90;113020;1206;22449;-79
2021/11/05 09:09:30;;;;;;;4.10;2.90;;;;;;;8.28;62.54;98566.80;113191;1206;137182;-78
2021/11/05 09:11:56;;;;;;;2.90;2.60;;;;;;;8.33;62.64;98570.84;113635;1206;25175;-79
2021/11/05 09:14:23;;;;;;;5.10;2.90;;;;;;;8.38;61.31;98568.36;113363;1198;22512;-78
2021/11/05 09:16:49;;;;;;;4.20;2.70;;;;;;;8.44;61.23;98577.70;112889;1200;137028;-78
2021/11/05 09:19:15;;;;;;;3.80;2.40;;;;;;;8.53;61.36;98567.02;113152;1205;22456;-78
2021/11/05 09:21:41;;;;;;;2.40;1.90;;;;;;;8.63;61.93;98565.40;112969;1206;137422;-78
2021/11/05 09:24:08;;;;;;;8.10;3.00;;;;;;;8.75;61.62;98572.45;112733;1202;23812;-78
2021/11/05 09:26:34;;;;;;;6.00;3.10;;;;;;;8.86;61.88;98576.17;113108;1205;24039;-79
2021/11/05 09:29:00;;;;;;;3.50;2.70;;;;;;;8.91;61.49;98583.74;112956;1200;137124;-78
2021/11/05 09:31:27;;;;;;;3.60;2.70;;;;;;;8.91;60.93;98585.66;112886;1205;25022;-77
2021/11/05 09:33:53;;;;;;;3.90;2.70;;;;;;;8.94;61.15;98586.33;112957;1200;136906;-78
2021/11/05 09:36:19;;;;;;;3.60;3.00;;;;;;;8.97;61.19;98589.22;112814;1205;25091;-78
2021/11/05 09:38:46;;;;;;;3.90;2.70;;;;;;;9.00;60.52;98596.96;112955;1200;26271;-78
2021/11/05 09:41:12;;;;;;;5.90;2.90;;;;;;;9.04;60.89;98594.59;113060;1199;136994;-79
2021/11/05 09:43:40;;;;;;;4.00;2.60;;;;;;;9.04;60.48;98590.13;113066;1198;25120;-78
2021/11/05 09:46:07;;;;;;;4.30;2.90;;;;;;;8.99;59.95;98591.33;112847;1206;137309;-79
2021/11/05 09:48:37;;;;;;;5.50;2.90;;;;;;;8.92;60.55;98594.80;112767;1206;25265;-79
2021/11/05 09:51:06;;;;;;;4.30;3.00;;;;;;;8.90;60.76;98607.91;112840;1205;137735;-79
2021/11/05 09:53:36;;;;;;;7.00;3.80;;;;;;;8.93;60.71;98612.88;113010;1199;25288;-79
2021/11/05 09:56:04;;;;;;;7.60;2.90;;;;;;;9.01;60.81;98609.85;112909;1205;22472;-80
2021/11/05 09:58:31;;;;;;;3.40;2.80;;;;;;;9.09;60.15;98606.34;113032;1206;137673;-78
2021/11/05 10:00:57;;;;;;;4.90;3.00;;;;;;;9.12;60.47;98600.98;112940;1206;25059;-78
2021/11/05 10:03:24;;;;;;;5.00;3.00;;;;;;;9.19;60.07;98606.20;112735;1206;137371;-78
2021/11/05 10:05:52;;;;;;;3.80;2.70;;;;;;;9.18;59.74;98610.31;112927;1200;23693;-78
2021/11/05 10:08:27;;;;;;;4.30;3.00;;;;;;;9.09;59.73;98613.84;112690;1206;22441;-78
2021/11/05 10:10:53;;;;;;;3.90;3.40;;;;;;;9.05;59.60;98619.48;112855;1200;137235;-79
2021/11/05 10:13:24;;;;;;;6.10;3.40;;;;;;;9.06;59.48;98624.44;112793;1206;24184;-78
2021/11/05 10:15:56;;;;;;;5.60;3.40;;;;;;;9.10;59.93;98621.84;112611;1200;137019;-77
2021/11/05 10:19:05;;;;;;;3.70;2.40;;;;;;;9.12;60.14;98616.20;113489;1199;22432;-79
2021/11/05 10:21:40;;;;;;;5.20;2.90;;;;;;;9.14;59.69;98625.20;112898;1206;137526;-78
2021/11/05 10:24:17;;;;;;;6.30;2.90;;;;;;;9.16;59.95;98628.95;112971;1198;22435;-78
2021/11/05 10:26:46;;;;;;;5.10;2.90;;;;;;;9.19;59.52;98624.59;112848;1205;22462;-79
2021/11/05 10:29:28;;;;;;;3.60;3.00;;;;;;;9.20;59.31;98626.88;112958;1205;137411;-78
2021/11/05 10:32:08;;;;;;;7.60;2.60;;;;;;;9.18;59.21;98628.58;112918;1205;22482;-78
2021/11/05 10:34:55;;;;;;;5.40;2.50;;;;;;;9.20;59.48;98627.88;112879;1198;137209;-78
2021/11/05 10:37:27;;;;;;;7.00;3.20;;;;;;;9.23;59.86;98625.28;113012;1205;24058;-77
2021/11/05 10:39:56;;;;;;;4.90;2.50;;;;;;;9.24;60.16;98625.14;112807;1205;137266;-77
2021/11/05 10:42:37;;;;;;;4.70;3.10;;;;;;;9.28;59.68;98624.59;112741;1205;22558;-80
2021/11/05 10:45:24;;;;;;;6.10;2.60;;;;;;;9.36;59.39;98616.36;112968;1205;137291;-78
2021/11/05 10:47:53;;;;;;;2.40;2.00;;;;;;;9.47;59.90;98624.23;112889;1205;24183;-79
2021/11/05 10:50:23;;;;;;;4.10;2.70;;;;;;;9.54;59.62;98631.21;112712;1206;25258;-79
2021/11/05 10:53:05;;;;;;;5.90;2.40;;;;;;;9.55;59.07;98635.81;112937;1206;137325;-78
2021/11/05 10:55:51;;;;;;;4.70;3.30;;;;;;;9.61;58.46;98642.80;112838;1192;24107;-79
2021/11/05 10:58:17;;;;;;;4.10;2.60;;;;;;;9.62;58.45;98643.91;112858;1203;137126;-78
2021/11/05 11:00:44;;;;;;;3.60;2.30;;;;;;;9.59;58.28;98644.40;113079;1205;25058;-78
2021/11/05 11:03:17;;;;;;;5.60;2.50;;;;;;;9.57;58.18;98640.52;112816;1205;137791;-79
2021/11/05 11:05:44;;;;;;;4.20;3.20;;;;;;;9.56;58.30;98641.22;112968;1198;23275;-78
2021/11/05 11:08:22;;;;;;;6.20;2.90;;;;;;;9.56;58.56;98640.45;112929;1205;22545;-79
2021/11/05 11:10:50;;;;;;;5.40;2.80;;;;;;;9.57;58.88;98635.20;113136;1205;137601;-79
2021/11/05 11:13:35;;;;;;;3.30;2.50;;;;;;;9.61;58.44;98640.03;113101;1205;25092;-78
2021/11/05 11:16:04;;;;;;;4.20;2.60;;;;;;;9.61;58.32;98638.79;112924;1205;137269;-79
2021/11/05 11:18:30;;;;;;;5.20;2.80;;;;;;;9.57;58.20;98633.46;112896;1206;23347;-79
2021/11/05 11:20:58;;;;;;;6.40;3.20;;;;;;;9.62;58.24;98635.83;112983;1205;22451;-79
2021/11/05 11:23:39;;;;;;;5.20;2.80;;;;;;;9.73;58.36;98637.16;112642;1206;136811;-79
2021/11/05 11:26:20;;;;;;;4.70;3.40;;;;;;;9.71;58.04;98645.89;112875;1201;22452;-79
2021/11/05 11:28:47;;;;;;;3.70;3.00;;;;;;;9.70;58.13;98645.59;112852;1206;137009;-79
2021/11/05 11:31:17;;;;;;;7.30;3.50;;;;;;;9.68;58.12;98647.83;112884;1205;25021;-79
2021/11/05 11:33:45;;;;;;;5.90;3.70;;;;;;;9.69;58.37;98650.90;112716;1201;137792;-79